Time;durP1;ratioP1;P1;durP2;ratioP2;P2;SDS_P1;SDS_P2;PMS_P1;PMS_P2;Temp;Humidity;BMP_temperature;BMP_pressure;BME280_temperature;BME280_humidity;BME280_pressure;Samples;Min_cycle;Max_cycle;Signal;HPM_P1;HPM_P2
2021/11/05 00:02:00;;;;;;;13.43;9.93;;;;;;;;;;5070606;28;20146;-73
2021/11/05 00:04:25;;;;;;;14.10;9.95;;;;;;;;;;5054650;28;20302;-72
2021/11/05 00:06:50;;;;;;;16.98;9.80;;;;;;;;;;5073475;28;20509;-72
2021/11/05 00:09:16;;;;;;;16.10;10.68;;;;;;;;;;5071439;28;20639;-72
2021/11/05 00:11:41;;;;;;;12.50;8.85;;;;;;;;;;5074073;28;20405;-72
2021/11/05 00:14:06;;;;;;;13.35;8.82;;;;;;;;;;5056744;28;20036;-72
2021/11/05 00:16:32;;;;;;;15.32;10.32;;;;;;;;;;5056405;28;20028;-72
2021/11/05 00:18:57;;;;;;;15.70;9.88;;;;;;;;;;5058372;28;20024;-71
2021/11/05 00:21:22;;;;;;;16.02;10.43;;;;;;;;;;5036355;28;20054;-71
2021/11/05 00:23:47;;;;;;;14.73;10.18;;;;;;;;;;5072816;28;20059;-71
2021/11/05 00:26:12;;;;;;;17.55;11.52;;;;;;;;;;5056501;28;20090;-72
2021/11/05 00:28:37;;;;;;;16.25;10.60;;;;;;;;;;5073453;28;20035;-72
2021/11/05 00:31:03;;;;;;;15.55;11.05;;;;;;;;;;5072582;28;20048;-72
2021/11/05 00:33:28;;;;;;;14.35;11.13;;;;;;;;;;5059693;28;20581;-72
2021/11/05 00:35:53;;;;;;;18.70;12.15;;;;;;;;;;5076633;28;20175;-71
2021/11/05 00:38:18;;;;;;;14.98;10.75;;;;;;;;;;5078313;28;20073;-71
2021/11/05 00:40:44;;;;;;;16.75;10.95;;;;;;;;;;5080116;28;20061;-71
2021/11/05 00:43:09;;;;;;;17.23;12.30;;;;;;;;;;5075504;28;20040;-71
2021/11/05 00:45:34;;;;;;;14.40;9.65;;;;;;;;;;5094012;28;20060;-71
2021/11/05 00:47:59;;;;;;;14.80;10.98;;;;;;;;;;5093773;28;20028;-71
2021/11/05 00:50:25;;;;;;;15.93;10.25;;;;;;;;;;5094165;28;20032;-71
2021/11/05 00:52:50;;;;;;;17.13;11.38;;;;;;;;;;5090370;28;20476;-71
2021/11/05 00:55:15;;;;;;;14.77;10.77;;;;;;;;;;5075453;28;20028;-71
2021/11/05 00:57:40;;;;;;;14.27;10.55;;;;;;;;;;5108844;28;20024;-71
2021/11/05 01:00:15;;;;;;;12.75;9.38;;;;;;;;;;5085914;28;20062;-71
2021/11/05 01:02:40;;;;;;;16.05;10.07;;;;;;;;;;5073902;28;20473;-71
2021/11/05 01:05:06;;;;;;;12.48;8.90;;;;;;;;;;5091646;28;20047;-71
2021/11/05 01:07:32;;;;;;;13.02;9.38;;;;;;;;;;5074635;28;20051;-71
2021/11/05 01:09:57;;;;;;;16.83;9.73;;;;;;;;;;5094796;28;20012;-72
2021/11/05 01:12:22;;;;;;;12.02;8.75;;;;;;;;;;5092334;28;20124;-71
2021/11/05 01:14:47;;;;;;;11.82;8.88;;;;;;;;;;5093552;28;20060;-71
2021/11/05 01:17:13;;;;;;;12.77;9.13;;;;;;;;;;5094789;28;20376;-71
2021/11/05 01:19:38;;;;;;;11.98;9.43;;;;;;;;;;5074786;28;20093;-71
2021/11/05 01:22:03;;;;;;;10.73;7.95;;;;;;;;;;5070514;28;20392;-71
2021/11/05 01:24:29;;;;;;;9.50;7.63;;;;;;;;;;5092905;28;20119;-72
2021/11/05 01:26:54;;;;;;;10.63;8.10;;;;;;;;;;5075098;28;20127;-72
2021/11/05 01:29:19;;;;;;;8.65;6.82;;;;;;;;;;5074708;28;20142;-72
2021/11/05 01:31:44;;;;;;;8.38;6.78;;;;;;;;;;5080650;28;20044;-71
2021/11/05 01:34:10;;;;;;;9.15;6.97;;;;;;;;;;5078463;28;20027;-71
2021/11/05 01:36:35;;;;;;;8.88;7.22;;;;;;;;;;5073825;28;20496;-71
2021/11/05 01:39:00;;;;;;;8.65;7.03;;;;;;;;;;5071708;28;20016;-71
2021/11/05 01:41:25;;;;;;;7.30;5.90;;;;;;;;;;5055030;28;20063;-71
2021/11/05 01:43:51;;;;;;;7.40;5.68;;;;;;;;;;5061890;28;20070;-71
2021/11/05 01:46:20;;;;;;;7.65;6.15;;;;;;;;;;5062367;28;20035;-71
2021/11/05 01:48:45;;;;;;;7.88;5.93;;;;;;;;;;5076429;28;20043;-71
2021/11/05 01:51:10;;;;;;;7.97;6.25;;;;;;;;;;5068199;28;20384;-71
2021/11/05 01:53:35;;;;;;;6.95;5.65;;;;;;;;;;5074696;28;20023;-71
2021/11/05 01:56:01;;;;;;;6.30;5.60;;;;;;;;;;5056078;28;20021;-71
2021/11/05 01:58:26;;;;;;;5.50;4.90;;;;;;;;;;5074832;28;20029;-71
2021/11/05 02:00:52;;;;;;;7.45;6.07;;;;;;;;;;5074979;28;20472;-72
2021/11/05 02:03:17;;;;;;;6.63;5.68;;;;;;;;;;5078205;28;20376;-71
2021/11/05 02:05:44;;;;;;;8.50;6.35;;;;;;;;;;5072258;28;20033;-71
2021/11/05 02:08:10;;;;;;;7.63;6.50;;;;;;;;;;5071342;28;20028;-71
2021/11/05 02:10:36;;;;;;;7.10;5.78;;;;;;;;;;5070873;28;20037;-71
2021/11/05 02:13:01;;;;;;;6.68;5.75;;;;;;;;;;5037087;28;20035;-71
2021/11/05 02:15:26;;;;;;;7.53;6.35;;;;;;;;;;5033973;28;20029;-71
2021/11/05 02:17:52;;;;;;;6.82;6.03;;;;;;;;;;5069827;28;20487;-72
2021/11/05 02:20:19;;;;;;;7.35;6.55;;;;;;;;;;5071397;28;20024;-71
2021/11/05 02:22:44;;;;;;;9.63;6.78;;;;;;;;;;5039085;28;20040;-71
2021/11/05 02:25:10;;;;;;;7.55;5.78;;;;;;;;;;5054099;28;20527;-72
2021/11/05 02:27:36;;;;;;;7.05;6.32;;;;;;;;;;5072700;28;20133;-72
2021/11/05 02:30:03;;;;;;;7.30;6.18;;;;;;;;;;5075353;28;20040;-71
2021/11/05 02:32:28;;;;;;;7.32;6.57;;;;;;;;;;5091786;28;20168;-71
2021/11/05 02:34:54;;;;;;;7.60;6.28;;;;;;;;;;5073787;28;20441;-71
2021/11/05 02:37:21;;;;;;;7.93;6.75;;;;;;;;;;5073948;28;20455;-72
2021/11/05 02:39:46;;;;;;;7.18;6.30;;;;;;;;;;5093125;28;20032;-71
2021/11/05 02:42:12;;;;;;;6.78;5.93;;;;;;;;;;5092602;28;20145;-72
2021/11/05 02:44:37;;;;;;;7.20;6.38;;;;;;;;;;5094766;28;20034;-71
2021/11/05 02:47:19;;;;;;;6.07;5.47;;;;;;;;;;5094771;28;20028;-72
2021/11/05 02:49:45;;;;;;;7.28;5.88;;;;;;;;;;5090824;28;20036;-72
2021/11/05 02:52:11;;;;;;;5.70;5.20;;;;;;;;;;5053877;28;20048;-72
2021/11/05 02:54:36;;;;;;;6.53;5.93;;;;;;;;;;5091512;28;20028;-72
2021/11/05 02:57:01;;;;;;;6.25;5.65;;;;;;;;;;5077351;28;20037;-72
2021/11/05 02:59:26;;;;;;;6.88;5.88;;;;;;;;;;5091631;28;20055;-71
2021/11/05 03:01:52;;;;;;;7.07;6.38;;;;;;;;;;5091811;28;20030;-72
2021/11/05 03:04:17;;;;;;;7.85;6.65;;;;;;;;;;5092125;28;20020;-72
2021/11/05 03:06:42;;;;;;;8.00;7.20;;;;;;;;;;5074586;28;20084;-72
2021/11/05 03:09:09;;;;;;;6.75;6.15;;;;;;;;;;5091211;28;20036;-71
2021/11/05 03:11:34;;;;;;;7.15;6.45;;;;;;;;;;5073770;28;20119;-72
2021/11/05 03:14:00;;;;;;;8.07;7.22;;;;;;;;;;5091262;28;20055;-72
2021/11/05 03:16:25;;;;;;;7.63;6.82;;;;;;;;;;5092619;28;20529;-71
2021/11/05 03:18:50;;;;;;;7.63;6.78;;;;;;;;;;5073954;28;20494;-71
2021/11/05 03:21:15;;;;;;;6.90;6.18;;;;;;;;;;5088203;28;20383;-72
2021/11/05 03:23:41;;;;;;;8.02;6.53;;;;;;;;;;5090513;28;20016;-71
2021/11/05 03:26:06;;;;;;;7.47;6.68;;;;;;;;;;5072930;28;20022;-71
2021/11/05 03:28:31;;;;;;;8.45;7.13;;;;;;;;;;5091326;28;20050;-71
2021/11/05 03:30:56;;;;;;;8.13;7.03;;;;;;;;;;5091381;28;20062;-71
2021/11/05 03:33:22;;;;;;;8.35;7.55;;;;;;;;;;5091332;28;20020;-73
2021/11/05 03:35:47;;;;;;;8.15;7.18;;;;;;;;;;5103560;28;20476;-71
2021/11/05 03:38:12;;;;;;;8.70;7.72;;;;;;;;;;5075714;28;20024;-71
2021/11/05 03:40:37;;;;;;;10.27;8.05;;;;;;;;;;5081418;28;20118;-71
2021/11/05 03:43:03;;;;;;;8.55;7.57;;;;;;;;;;5105116;28;20484;-71
2021/11/05 03:45:28;;;;;;;8.55;7.55;;;;;;;;;;5095149;28;20024;-71
2021/11/05 03:47:53;;;;;;;8.07;7.28;;;;;;;;;;5095878;28;20028;-71
2021/11/05 03:50:19;;;;;;;8.32;7.50;;;;;;;;;;5094899;28;20028;-72
2021/11/05 03:52:44;;;;;;;8.60;7.70;;;;;;;;;;5090814;28;20132;-72
2021/11/05 03:55:10;;;;;;;9.35;8.35;;;;;;;;;;5094456;28;20044;-72
2021/11/05 03:57:35;;;;;;;8.60;7.65;;;;;;;;;;5078204;28;20031;-72
2021/11/05 04:00:00;;;;;;;8.75;7.60;;;;;;;;;;5076865;28;20116;-72
2021/11/05 04:02:26;;;;;;;7.35;6.65;;;;;;;;;;5059865;28;20086;-72
2021/11/05 04:04:55;;;;;;;9.77;8.00;;;;;;;;;;5060006;28;20032;-72
2021/11/05 04:07:20;;;;;;;7.85;7.05;;;;;;;;;;5098444;28;20036;-71
2021/11/05 04:09:45;;;;;;;8.70;7.15;;;;;;;;;;5076207;28;20098;-71
2021/11/05 04:12:10;;;;;;;8.07;7.28;;;;;;;;;;5059601;28;20093;-71
2021/11/05 04:14:36;;;;;;;9.57;7.85;;;;;;;;;;5056168;28;20033;-72
2021/11/05 04:17:01;;;;;;;8.50;7.47;;;;;;;;;;5092983;28;20074;-75
2021/11/05 04:19:26;;;;;;;9.48;8.05;;;;;;;;;;5107528;28;20031;-73
2021/11/05 04:21:51;;;;;;;9.18;7.68;;;;;;;;;;5070587;28;20024;-75
2021/11/05 04:24:17;;;;;;;9.82;8.40;;;;;;;;;;5075733;28;20456;-72
2021/11/05 04:26:42;;;;;;;8.82;7.55;;;;;;;;;;5076307;28;20430;-71
2021/11/05 04:29:08;;;;;;;9.30;7.63;;;;;;;;;;5086149;28;20060;-71
2021/11/05 04:31:33;;;;;;;8.82;7.35;;;;;;;;;;5077057;28;20076;-71
2021/11/05 04:33:59;;;;;;;9.90;8.13;;;;;;;;;;5093414;28;20070;-72
2021/11/05 04:36:24;;;;;;;9.88;8.88;;;;;;;;;;5094135;28;20062;-72
2021/11/05 04:38:49;;;;;;;10.57;8.82;;;;;;;;;;5075821;28;20412;-72
2021/11/05 04:41:15;;;;;;;10.13;8.73;;;;;;;;;;5094284;28;20081;-72
2021/11/05 04:43:40;;;;;;;10.18;8.60;;;;;;;;;;5093328;28;20032;-72
2021/11/05 04:46:06;;;;;;;10.75;9.13;;;;;;;;;;5076130;28;20032;-71
2021/11/05 04:48:31;;;;;;;9.93;8.82;;;;;;;;;;5095139;28;20043;-71
2021/11/05 04:50:56;;;;;;;12.18;9.23;;;;;;;;;;5104613;28;20102;-71
2021/11/05 04:53:21;;;;;;;9.80;8.80;;;;;;;;;;5091545;28;20021;-71
2021/11/05 04:55:46;;;;;;;10.63;9.05;;;;;;;;;;5094108;28;20587;-71
2021/11/05 04:58:12;;;;;;;10.75;9.23;;;;;;;;;;5094359;28;20533;-71
2021/11/05 05:00:37;;;;;;;11.82;10.63;;;;;;;;;;5089601;28;20127;-72
2021/11/05 05:03:03;;;;;;;10.85;9.65;;;;;;;;;;5093517;28;20110;-71
2021/11/05 05:05:28;;;;;;;10.27;9.02;;;;;;;;;;5093748;28;20320;-72
2021/11/05 05:07:54;;;;;;;10.68;9.60;;;;;;;;;;5105196;28;20028;-72
2021/11/05 05:10:19;;;;;;;9.63;8.63;;;;;;;;;;5075604;28;20046;-71
2021/11/05 05:12:45;;;;;;;9.88;8.88;;;;;;;;;;5093243;28;20466;-72
2021/11/05 05:15:11;;;;;;;10.75;9.55;;;;;;;;;;5093594;28;20012;-72
2021/11/05 05:17:37;;;;;;;11.88;10.65;;;;;;;;;;5101264;28;20034;-71
2021/11/05 05:20:04;;;;;;;9.70;8.60;;;;;;;;;;5114332;28;20107;-72
2021/11/05 05:22:29;;;;;;;11.13;9.98;;;;;;;;;;5091858;28;20034;-72
2021/11/05 05:24:54;;;;;;;11.88;9.82;;;;;;;;;;5101711;28;20174;-71
2021/11/05 05:27:20;;;;;;;10.55;9.43;;;;;;;;;;5095287;28;20080;-71
2021/11/05 05:29:47;;;;;;;9.85;8.85;;;;;;;;;;5109207;28;20032;-72
2021/11/05 05:32:13;;;;;;;8.90;7.68;;;;;;;;;;5100476;28;20031;-72
2021/11/05 05:34:38;;;;;;;8.40;7.60;;;;;;;;;;5090796;28;20628;-71
2021/11/05 05:37:04;;;;;;;8.90;8.10;;;;;;;;;;5092985;28;20111;-72
2021/11/05 05:39:29;;;;;;;10.55;9.07;;;;;;;;;;5091841;28;20035;-71
2021/11/05 05:41:54;;;;;;;9.95;9.00;;;;;;;;;;5093595;28;20086;-72
2021/11/05 05:44:20;;;;;;;9.65;8.65;;;;;;;;;;5098696;28;20081;-71
2021/11/05 05:46:45;;;;;;;8.68;7.88;;;;;;;;;;5094536;28;20231;-71
2021/11/05 05:49:10;;;;;;;10.80;8.48;;;;;;;;;;5076714;28;20020;-71
2021/11/05 05:51:36;;;;;;;8.73;7.85;;;;;;;;;;5090057;28;20038;-71
2021/11/05 05:54:01;;;;;;;9.00;8.00;;;;;;;;;;5091933;28;20063;-71
2021/11/05 05:56:27;;;;;;;9.40;8.50;;;;;;;;;;5093306;28;20103;-71
2021/11/05 05:58:52;;;;;;;8.40;7.25;;;;;;;;;;5094229;28;20482;-72
2021/11/05 06:01:17;;;;;;;8.48;7.68;;;;;;;;;;5090503;28;20379;-72
2021/11/05 06:03:42;;;;;;;8.68;7.88;;;;;;;;;;5111961;28;20019;-72
2021/11/05 06:06:07;;;;;;;6.20;5.60;;;;;;;;;;5098481;28;20012;-71
2021/11/05 06:08:33;;;;;;;6.80;5.45;;;;;;;;;;5097037;28;20027;-72
2021/11/05 06:10:58;;;;;;;5.15;4.72;;;;;;;;;;5086795;28;20055;-70
2021/11/05 06:13:23;;;;;;;5.22;4.38;;;;;;;;;;5092873;28;20055;-71
2021/11/05 06:15:48;;;;;;;4.97;4.50;;;;;;;;;;5073715;28;20236;-72
2021/11/05 06:18:14;;;;;;;4.35;3.78;;;;;;;;;;5074082;28;20020;-71
2021/11/05 06:20:39;;;;;;;5.15;4.65;;;;;;;;;;5089556;28;20028;-70
2021/11/05 06:23:04;;;;;;;5.07;4.50;;;;;;;;;;5090121;28;20027;-70
2021/11/05 06:25:29;;;;;;;5.47;4.80;;;;;;;;;;5106252;28;20024;-70
2021/11/05 06:27:55;;;;;;;3.83;3.53;;;;;;;;;;5090636;28;20111;-70
2021/11/05 06:30:20;;;;;;;3.80;3.50;;;;;;;;;;5093208;28;20066;-70
2021/11/05 06:32:45;;;;;;;4.70;4.18;;;;;;;;;;5088040;28;20034;-72
2021/11/05 06:35:11;;;;;;;4.53;3.95;;;;;;;;;;5076120;28;20020;-70
2021/11/05 06:37:37;;;;;;;4.45;4.05;;;;;;;;;;5091774;28;20059;-70
2021/11/05 06:40:03;;;;;;;3.47;3.17;;;;;;;;;;5091146;28;20024;-70
2021/11/05 06:42:29;;;;;;;4.47;3.45;;;;;;;;;;5099692;28;20085;-71
2021/11/05 06:44:54;;;;;;;4.38;3.83;;;;;;;;;;5092410;28;20020;-71
2021/11/05 06:47:19;;;;;;;4.28;3.88;;;;;;;;;;5100551;28;20092;-71
2021/11/05 06:49:45;;;;;;;4.22;3.83;;;;;;;;;;5091470;28;20115;-72
2021/11/05 06:52:10;;;;;;;4.28;3.40;;;;;;;;;;5081126;28;20066;-70
2021/11/05 06:54:38;;;;;;;3.67;3.20;;;;;;;;;;5086344;28;20028;-70
2021/11/05 06:57:03;;;;;;;4.40;4.00;;;;;;;;;;5104632;28;20094;-71
2021/11/05 06:59:28;;;;;;;5.78;5.18;;;;;;;;;;5091271;28;20452;-71
2021/11/05 07:01:54;;;;;;;3.13;2.00;;;;;;;;;;5091378;28;20031;-71
2021/11/05 07:04:19;;;;;;;2.25;2.05;;;;;;;;;;5081827;28;20115;-71
2021/11/05 07:06:45;;;;;;;2.30;1.80;;;;;;;;;;5091580;28;20032;-71
2021/11/05 07:09:11;;;;;;;2.78;1.40;;;;;;;;;;5089724;28;20376;-71
2021/11/05 07:11:36;;;;;;;1.92;1.70;;;;;;;;;;5101311;28;20030;-71
2021/11/05 07:14:02;;;;;;;2.65;2.03;;;;;;;;;;5101129;28;20376;-71
2021/11/05 07:16:29;;;;;;;2.15;1.95;;;;;;;;;;5095871;28;20468;-71
2021/11/05 07:18:54;;;;;;;1.90;1.70;;;;;;;;;;5095235;28;20032;-69
2021/11/05 07:21:19;;;;;;;2.85;2.22;;;;;;;;;;5088637;28;20109;-69
2021/11/05 07:23:44;;;;;;;3.25;2.70;;;;;;;;;;5094018;28;20103;-72
2021/11/05 07:26:11;;;;;;;4.25;3.25;;;;;;;;;;5082015;28;20112;-72
2021/11/05 07:28:37;;;;;;;3.50;2.90;;;;;;;;;;5097588;28;20016;-72
2021/11/05 07:31:02;;;;;;;3.38;2.90;;;;;;;;;;5094462;28;20040;-71
2021/11/05 07:33:27;;;;;;;4.90;3.42;;;;;;;;;;5095298;28;20387;-72
2021/11/05 07:35:53;;;;;;;4.45;3.20;;;;;;;;;;5103258;28;20368;-70
2021/11/05 07:38:19;;;;;;;4.25;3.10;;;;;;;;;;5098683;28;20527;-71
2021/11/05 07:40:45;;;;;;;4.63;3.70;;;;;;;;;;5095071;28;20036;-71
2021/11/05 07:43:10;;;;;;;3.22;2.92;;;;;;;;;;5111143;28;20472;-71
2021/11/05 07:45:35;;;;;;;4.80;3.22;;;;;;;;;;5111284;28;20337;-71
2021/11/05 07:48:00;;;;;;;3.28;2.97;;;;;;;;;;5100044;28;20048;-71
2021/11/05 07:50:26;;;;;;;2.03;1.77;;;;;;;;;;5092833;28;20384;-70
2021/11/05 07:52:51;;;;;;;1.63;1.20;;;;;;;;;;5084998;28;20058;-72
2021/11/05 07:55:17;;;;;;;1.30;1.20;;;;;;;;;;5094427;28;20016;-71
2021/11/05 07:57:42;;;;;;;1.27;1.17;;;;;;;;;;5100081;28;20023;-71
2021/11/05 08:00:09;;;;;;;1.80;1.20;;;;;;;;;;5079782;28;20494;-70
2021/11/05 08:02:34;;;;;;;2.38;1.85;;;;;;;;;;5075749;28;20040;-72
2021/11/05 08:04:59;;;;;;;2.03;1.80;;;;;;;;;;5093587;28;20023;-71
2021/11/05 08:07:24;;;;;;;1.70;1.38;;;;;;;;;;5107691;28;20411;-73
2021/11/05 08:09:50;;;;;;;2.00;1.42;;;;;;;;;;5094870;28;20387;-71
2021/11/05 08:12:15;;;;;;;3.13;1.40;;;;;;;;;;5094284;28;20028;-72
2021/11/05 08:14:40;;;;;;;1.63;1.23;;;;;;;;;;5094810;28;20064;-72
2021/11/05 08:17:05;;;;;;;1.40;1.30;;;;;;;;;;5108108;28;20047;-72
2021/11/05 08:19:31;;;;;;;1.95;1.30;;;;;;;;;;5093493;28;20107;-72
2021/11/05 08:21:56;;;;;;;1.25;1.05;;;;;;;;;;5071576;28;20024;-71
2021/11/05 08:24:21;;;;;;;2.42;1.40;;;;;;;;;;5096413;28;20028;-71
2021/11/05 08:26:48;;;;;;;2.65;1.25;;;;;;;;;;5095499;28;20028;-71
2021/11/05 08:29:13;;;;;;;1.52;1.42;;;;;;;;;;5097601;28;20047;-71
2021/11/05 08:31:38;;;;;;;1.60;0.93;;;;;;;;;;5091574;28;20377;-71
2021/11/05 08:34:03;;;;;;;2.40;1.70;;;;;;;;;;5094194;28;20035;-71
2021/11/05 08:36:29;;;;;;;2.38;1.80;;;;;;;;;;5089941;28;20042;-71
2021/11/05 08:38:55;;;;;;;1.77;1.55;;;;;;;;;;5106280;28;20026;-71
2021/11/05 08:41:20;;;;;;;1.80;1.52;;;;;;;;;;5094161;28;20467;-71
2021/11/05 08:43:48;;;;;;;2.15;1.85;;;;;;;;;;5088922;28;20069;-71
2021/11/05 08:46:16;;;;;;;1.65;1.50;;;;;;;;;;5097826;28;20422;-71
2021/11/05 08:48:42;;;;;;;1.83;1.40;;;;;;;;;;5092323;28;20043;-71
2021/11/05 08:51:10;;;;;;;1.63;1.50;;;;;;;;;;5090905;28;20035;-70
2021/11/05 08:53:35;;;;;;;1.90;1.70;;;;;;;;;;5072433;28;20115;-70
2021/11/05 08:56:00;;;;;;;1.90;1.70;;;;;;;;;;5094231;28;20104;-70
2021/11/05 08:58:26;;;;;;;1.23;0.98;;;;;;;;;;5094827;28;20157;-71
2021/11/05 09:00:51;;;;;;;1.20;1.10;;;;;;;;;;5093958;28;20036;-70
2021/11/05 09:03:16;;;;;;;1.38;1.00;;;;;;;;;;5090848;28;20051;-70
2021/11/05 09:05:42;;;;;;;2.28;1.00;;;;;;;;;;5093664;28;20027;-72
2021/11/05 09:08:08;;;;;;;2.50;1.23;;;;;;;;;;5091955;28;20024;-72
2021/11/05 09:10:33;;;;;;;1.67;1.45;;;;;;;;;;5097472;28;20497;-72
2021/11/05 09:12:58;;;;;;;2.28;1.60;;;;;;;;;;5080276;28;20051;-71
2021/11/05 09:15:26;;;;;;;1.65;1.30;;;;;;;;;;5074006;28;20034;-71
2021/11/05 09:17:52;;;;;;;1.58;1.48;;;;;;;;;;5099777;28;20038;-71
2021/11/05 09:20:18;;;;;;;1.60;1.50;;;;;;;;;;5081137;28;20036;-71
2021/11/05 09:22:43;;;;;;;1.85;1.45;;;;;;;;;;5092843;28;20119;-72
2021/11/05 09:25:08;;;;;;;2.83;1.92;;;;;;;;;;5093640;28;20023;-72
2021/11/05 09:27:34;;;;;;;2.00;1.42;;;;;;;;;;5097987;28;20028;-72
2021/11/05 09:29:59;;;;;;;2.28;1.70;;;;;;;;;;5092787;28;20139;-71
2021/11/05 09:32:25;;;;;;;2.50;1.77;;;;;;;;;;5092000;28;20630;-71
2021/11/05 09:34:50;;;;;;;1.90;1.70;;;;;;;;;;5094076;28;20024;-72
2021/11/05 09:37:16;;;;;;;1.35;1.20;;;;;;;;;;5092427;28;20020;-71
2021/11/05 09:39:42;;;;;;;1.83;1.58;;;;;;;;;;5088800;28;20123;-71
2021/11/05 09:42:07;;;;;;;2.50;1.60;;;;;;;;;;5089259;28;20475;-72
2021/11/05 09:44:32;;;;;;;2.08;1.60;;;;;;;;;;5093219;28;20028;-71
2021/11/05 09:47:01;;;;;;;2.92;1.60;;;;;;;;;;5092830;28;20088;-71
2021/11/05 09:49:26;;;;;;;1.90;1.67;;;;;;;;;;5092818;28;20032;-71
2021/11/05 09:51:52;;;;;;;1.83;1.60;;;;;;;;;;5069249;28;20494;-72
2021/11/05 09:54:20;;;;;;;2.80;1.15;;;;;;;;;;5092199;28;20023;-72
2021/11/05 09:56:46;;;;;;;1.45;1.00;;;;;;;;;;5098326;28;20028;-72
2021/11/05 09:59:12;;;;;;;1.70;1.30;;;;;;;;;;5097793;28;20103;-71
2021/11/05 10:01:38;;;;;;;1.27;1.00;;;;;;;;;;5075193;28;20549;-72
2021/11/05 10:04:03;;;;;;;1.50;1.40;;;;;;;;;;5087366;28;20353;-71
2021/11/05 10:06:28;;;;;;;2.35;1.38;;;;;;;;;;5092379;28;20541;-71
2021/11/05 10:08:54;;;;;;;2.40;1.50;;;;;;;;;;5069670;28;20035;-71
2021/11/05 10:11:25;;;;;;;3.10;1.85;;;;;;;;;;5057565;28;20489;-71
2021/11/05 10:13:50;;;;;;;2.28;1.95;;;;;;;;;;5081004;28;20032;-71
2021/11/05 10:16:17;;;;;;;2.17;1.90;;;;;;;;;;5109590;28;20023;-71
2021/11/05 10:18:56;;;;;;;1.92;1.60;;;;;;;;;;5104824;28;20471;-71
2021/11/05 10:21:21;;;;;;;1.80;1.63;;;;;;;;;;5070922;28;20020;-71
2021/11/05 10:23:47;;;;;;;2.50;2.25;;;;;;;;;;5090659;28;20371;-71
2021/11/05 10:26:38;;;;;;;2.85;1.70;;;;;;;;;;5092150;28;20016;-73
2021/11/05 10:29:06;;;;;;;1.90;1.52;;;;;;;;;;5087592;28;20039;-71
2021/11/05 10:31:32;;;;;;;3.75;2.67;;;;;;;;;;5089266;28;20554;-71
2021/11/05 10:33:57;;;;;;;3.60;2.70;;;;;;;;;;5089086;28;20276;-71
2021/11/05 10:36:22;;;;;;;3.35;2.65;;;;;;;;;;5092028;28;20440;-72
2021/11/05 10:38:50;;;;;;;2.60;1.98;;;;;;;;;;5095078;28;20134;-69
2021/11/05 10:41:17;;;;;;;3.08;2.33;;;;;;;;;;5092292;28;20076;-70
2021/11/05 10:43:52;;;;;;;1.98;1.73;;;;;;;;;;5091780;28;20012;-70
2021/11/05 10:46:23;;;;;;;1.73;1.15;;;;;;;;;;5092106;28;20020;-70
2021/11/05 10:48:49;;;;;;;2.85;2.15;;;;;;;;;;5090716;28;20020;-71
2021/11/05 10:51:15;;;;;;;2.90;2.05;;;;;;;;;;5059092;28;20031;-71
2021/11/05 10:53:42;;;;;;;3.45;2.22;;;;;;;;;;5074950;28;20401;-71
2021/11/05 10:56:09;;;;;;;3.55;2.75;;;;;;;;;;5081747;28;20300;-71
2021/11/05 10:58:37;;;;;;;3.63;2.95;;;;;;;;;;5083258;28;20099;-71
2021/11/05 11:01:05;;;;;;;3.17;2.88;;;;;;;;;;5078947;28;20031;-71
2021/11/05 11:03:31;;;;;;;3.75;3.17;;;;;;;;;;5073387;28;20359;-71
2021/11/05 11:06:03;;;;;;;4.38;3.97;;;;;;;;;;5089421;28;20099;-69
2021/11/05 11:08:32;;;;;;;4.47;3.55;;;;;;;;;;5092764;28;20051;-70
2021/11/05 11:10:59;;;;;;;5.45;4.68;;;;;;;;;;5100121;28;20024;-70
2021/11/05 11:13:28;;;;;;;5.25;4.75;;;;;;;;;;5073601;28;20538;-70
2021/11/05 11:15:53;;;;;;;5.38;4.68;;;;;;;;;;5085623;28;20032;-70
2021/11/05 11:18:19;;;;;;;6.22;5.20;;;;;;;;;;5070635;28;20028;-70
2021/11/05 11:20:44;;;;;;;6.82;5.40;;;;;;;;;;5081500;28;20032;-71
2021/11/05 11:23:09;;;;;;;6.00;4.75;;;;;;;;;;5090183;28;20484;-71
2021/11/05 11:25:36;;;;;;;4.28;3.88;;;;;;;;;;5091020;28;20157;-70
2021/11/05 11:28:01;;;;;;;5.07;4.20;;;;;;;;;;5090676;28;20032;-70
2021/11/05 11:30:26;;;;;;;4.45;3.80;;;;;;;;;;5086060;28;20112;-70
2021/11/05 11:32:51;;;;;;;3.65;2.85;;;;;;;;;;5057050;28;20039;-72
2021/11/05 11:35:17;;;;;;;4.32;3.83;;;;;;;;;;5072560;28;20025;-73
2021/11/05 11:37:42;;;;;;;5.15;4.60;;;;;;;;;;5072644;28;20024;-72
2021/11/05 11:40:08;;;;;;;7.43;5.47;;;;;;;;;;5091029;28;20024;-72
2021/11/05 11:42:33;;;;;;;6.85;5.95;;;;;;;;;;5108616;28;20122;-72
2021/11/05 11:44:59;;;;;;;7.70;6.10;;;;;;;;;;5111028;28;20035;-71
2021/11/05 11:47:39;;;;;;;6.22;5.03;;;;;;;;;;5090804;28;20020;-72
2021/11/05 11:50:18;;;;;;;6.25;4.90;;;;;;;;;;5091991;28;20028;-72
2021/11/05 11:52:44;;;;;;;4.13;3.53;;;;;;;;;;5088584;28;20027;-71
2021/11/05 11:55:11;;;;;;;3.92;3.42;;;;;;;;;;5091029;28;20035;-66
2021/11/05 11:57:37;;;;;;;2.60;2.40;;;;;;;;;;5108129;28;20488;-71
2021/11/05 12:00:07;;;;;;;2.38;2.17;;;;;;;;;;5073819;28;20077;-70
2021/11/05 12:02:39;;;;;;;2.55;1.80;;;;;;;;;;5093763;28;20033;-70
2021/11/05 12:05:20;;;;;;;2.45;1.63;;;;;;;;;;5094102;28;20089;-71
2021/11/05 12:08:04;;;;;;;1.40;1.30;;;;;;;;;;5094840;28;20047;-71
2021/11/05 12:10:29;;;;;;;1.77;1.30;;;;;;;;;;5080847;28;20115;-70
2021/11/05 12:12:54;;;;;;;1.88;1.13;;;;;;;;;;5094494;28;20108;-71
2021/11/05 12:15:20;;;;;;;1.55;1.25;;;;;;;;;;5094779;28;20024;-70
2021/11/05 12:17:45;;;;;;;0.85;0.85;;;;;;;;;;5094890;28;20039;-71
2021/11/05 12:20:24;;;;;;;2.03;1.17;;;;;;;;;;5095500;28;20016;-71
2021/11/05 12:23:08;;;;;;;1.35;1.02;;;;;;;;;;5087596;28;20502;-70
2021/11/05 12:25:42;;;;;;;2.25;0.85;;;;;;;;;;5078587;28;20069;-71
2021/11/05 12:28:18;;;;;;;1.38;0.90;;;;;;;;;;5095342;28;20043;-71
2021/11/05 12:30:44;;;;;;;1.30;1.13;;;;;;;;;;5093971;28;20051;-70
2021/11/05 12:33:36;;;;;;;1.50;0.90;;;;;;;;;;5094297;28;20019;-71
2021/11/05 12:36:05;;;;;;;1.75;1.23;;;;;;;;;;5084557;28;20032;-71
2021/11/05 12:38:31;;;;;;;1.45;1.35;;;;;;;;;;5097493;28;20024;-70
2021/11/05 12:41:02;;;;;;;0.70;0.70;;;;;;;;;;5088729;28;20187;-70
2021/11/05 12:43:27;;;;;;;1.75;1.00;;;;;;;;;;5094273;28;20019;-70
2021/11/05 12:45:53;;;;;;;1.38;0.98;;;;;;;;;;5096722;28;20069;-70
2021/11/05 12:48:38;;;;;;;1.48;0.70;;;;;;;;;;5093087;28;20068;-70
2021/11/05 12:51:11;;;;;;;1.00;0.70;;;;;;;;;;5082676;28;20899;-71
2021/11/05 12:53:40;;;;;;;0.82;0.75;;;;;;;;;;5087857;28;20032;-71
2021/11/05 12:56:05;;;;;;;1.50;0.77;;;;;;;;;;5093326;28;20070;-70
2021/11/05 12:58:32;;;;;;;2.05;0.70;;;;;;;;;;5093744;28;20016;-70
2021/11/05 13:00:58;;;;;;;0.82;0.82;;;;;;;;;;5093419;28;20098;-70
2021/11/05 13:03:23;;;;;;;0.90;0.80;;;;;;;;;;5095988;28;20047;-69
2021/11/05 13:05:52;;;;;;;1.17;0.90;;;;;;;;;;5103392;28;20028;-69
2021/11/05 13:08:20;;;;;;;1.00;0.82;;;;;;;;;;5093215;28;20028;-71
2021/11/05 13:10:46;;;;;;;1.63;1.02;;;;;;;;;;5096108;28;20131;-70
2021/11/05 13:13:11;;;;;;;1.88;1.15;;;;;;;;;;5093128;28;20507;-70
2021/11/05 13:15:38;;;;;;;1.08;0.80;;;;;;;;;;5112221;28;20016;-70
2021/11/05 13:18:04;;;;;;;2.20;1.10;;;;;;;;;;5101157;28;20024;-70
2021/11/05 13:20:31;;;;;;;0.70;0.70;;;;;;;;;;5100722;28;20031;-70
2021/11/05 13:22:57;;;;;;;1.73;0.75;;;;;;;;;;5091153;28;20040;-70
2021/11/05 13:25:22;;;;;;;0.85;0.60;;;;;;;;;;5088070;28;20018;-70
2021/11/05 13:27:59;;;;;;;0.60;0.50;;;;;;;;;;5088569;28;20040;-70
2021/11/05 13:30:30;;;;;;;1.23;1.00;;;;;;;;;;5087664;28;20068;-70
2021/11/05 13:32:56;;;;;;;1.08;0.70;;;;;;;;;;5086120;28;20188;-70
2021/11/05 13:35:22;;;;;;;0.98;0.80;;;;;;;;;;5091669;28;20016;-70
2021/11/05 13:37:47;;;;;;;1.55;0.77;;;;;;;;;;5095134;28;20485;-70
2021/11/05 13:40:12;;;;;;;1.67;0.98;;;;;;;;;;5092196;28;20375;-70
2021/11/05 13:42:37;;;;;;;1.83;0.98;;;;;;;;;;5098810;28;20056;-71
2021/11/05 13:45:05;;;;;;;1.25;0.88;;;;;;;;;;5081381;28;20059;-71
2021/11/05 13:47:30;;;;;;;0.95;0.70;;;;;;;;;;5098590;28;20042;-71
2021/11/05 13:49:59;;;;;;;0.82;0.70;;;;;;;;;;5104370;28;20471;-71
2021/11/05 13:52:24;;;;;;;1.05;1.00;;;;;;;;;;5080616;28;20460;-71
2021/11/05 13:54:49;;;;;;;1.20;1.02;;;;;;;;;;5088560;28;20031;-71
2021/11/05 13:57:16;;;;;;;1.42;1.20;;;;;;;;;;5091464;28;20468;-71
2021/11/05 13:59:42;;;;;;;1.05;0.95;;;;;;;;;;5079181;28;20023;-71
2021/11/05 14:02:07;;;;;;;2.38;1.05;;;;;;;;;;5080709;28;20488;-71
2021/11/05 14:04:32;;;;;;;1.10;0.98;;;;;;;;;;5080099;28;20031;-71
2021/11/05 14:06:57;;;;;;;2.25;1.25;;;;;;;;;;5090778;28;20028;-71
2021/11/05 14:09:31;;;;;;;0.85;0.70;;;;;;;;;;5099642;28;20016;-71
2021/11/05 14:11:57;;;;;;;1.77;0.80;;;;;;;;;;5093507;28;20207;-69
2021/11/05 14:14:23;;;;;;;1.17;1.08;;;;;;;;;;5073264;28;20495;-70
2021/11/05 14:16:52;;;;;;;1.38;0.77;;;;;;;;;;5091552;28;20578;-70
2021/11/05 14:19:20;;;;;;;1.50;0.77;;;;;;;;;;5093999;28;20263;-70
2021/11/05 14:21:55;;;;;;;0.88;0.85;;;;;;;;;;5083418;28;20016;-70
2021/11/05 14:24:23;;;;;;;1.70;1.00;;;;;;;;;;5087542;28;20027;-70
2021/11/05 14:27:03;;;;;;;2.00;1.02;;;;;;;;;;5095483;28;20027;-71
2021/11/05 14:29:31;;;;;;;1.30;1.20;;;;;;;;;;5089459;28;20039;-70
2021/11/05 14:31:58;;;;;;;1.30;1.15;;;;;;;;;;5085824;28;20044;-70
2021/11/05 14:34:25;;;;;;;2.08;1.13;;;;;;;;;;5089822;28;20505;-70
2021/11/05 14:37:14;;;;;;;1.35;1.25;;;;;;;;;;5086655;28;20380;-70